Time;durP1;ratioP1;P1;durP2;ratioP2;P2;SDS_P1;SDS_P2;PMS_P1;PMS_P2;Temp;Humidity;BMP_temperature;BMP_pressure;BME280_temperature;BME280_humidity;BME280_pressure;Samples;Min_cycle;Max_cycle;Signal;HPM_P1;HPM_P2
2023/06/30 00:01:27;;;;;;;9.97;6.83;;;;;;;24.77;61.15;99813.97;5075363;28;20226;-63
2023/06/30 00:03:52;;;;;;;11.67;7.17;;;;;;;24.76;60.43;99802.84;5087973;28;20197;-63
2023/06/30 00:06:18;;;;;;;14.63;8.57;;;;;;;24.77;61.17;99802.41;5086587;28;20451;-63
2023/06/30 00:08:43;;;;;;;9.50;7.60;;;;;;;24.76;61.23;99797.91;5069615;28;20229;-63
2023/06/30 00:11:09;;;;;;;11.77;7.60;;;;;;;24.75;61.07;99802.03;5068073;28;20252;-63
2023/06/30 00:13:35;;;;;;;8.70;6.67;;;;;;;24.76;61.10;99797.06;5071023;28;20692;-63
2023/06/30 00:16:00;;;;;;;12.33;7.90;;;;;;;24.76;60.84;99797.91;5069830;28;20439;-63
2023/06/30 00:18:25;;;;;;;11.60;7.33;;;;;;;24.75;61.08;99793.38;5055563;28;20659;-63
2023/06/30 00:20:54;;;;;;;13.07;7.27;;;;;;;24.76;60.98;99794.19;5074745;28;20199;-63
2023/06/30 00:23:20;;;;;;;12.40;7.30;;;;;;;24.75;61.05;99796.25;5090666;28;20617;-63
2023/06/30 00:25:45;;;;;;;12.70;7.40;;;;;;;24.73;61.03;99790.09;5087244;28;20447;-63
2023/06/30 00:28:11;;;;;;;11.47;7.53;;;;;;;24.75;61.03;99789.66;5091281;28;20705;-63
2023/06/30 00:30:37;;;;;;;10.77;7.63;;;;;;;24.75;61.07;99793.38;5089328;28;20959;-62
2023/06/30 00:33:03;;;;;;;13.87;7.40;;;;;;;24.74;61.02;99794.59;5070275;28;20229;-63
2023/06/30 00:35:28;;;;;;;12.03;7.20;;;;;;;24.74;60.72;99782.25;5070213;28;20417;-63
2023/06/30 00:37:54;;;;;;;10.10;7.20;;;;;;;24.73;61.18;99784.31;5046068;28;20191;-63
2023/06/30 00:40:19;;;;;;;13.33;7.17;;;;;;;24.74;60.80;99797.50;5072749;28;20175;-63
2023/06/30 00:42:44;;;;;;;11.27;7.67;;;;;;;24.74;60.82;99780.16;5079843;28;20174;-63
2023/06/30 00:45:10;;;;;;;10.80;7.20;;;;;;;24.73;60.86;99783.50;5088433;28;20178;-62
2023/06/30 00:47:36;;;;;;;11.03;6.90;;;;;;;24.73;60.68;99783.50;5073377;28;20843;-63
2023/06/30 00:50:02;;;;;;;12.73;8.00;;;;;;;24.72;60.74;99776.91;5072871;28;20251;-63
2023/06/30 00:52:27;;;;;;;10.47;7.30;;;;;;;24.72;60.63;99782.69;5088513;28;20503;-63
2023/06/30 00:54:53;;;;;;;14.50;8.00;;;;;;;24.72;60.65;99778.97;5055977;28;20448;-63
2023/06/30 00:57:18;;;;;;;9.63;6.77;;;;;;;24.72;61.05;99776.09;5087008;28;20183;-63
2023/06/30 00:59:44;;;;;;;9.47;7.13;;;;;;;24.71;60.79;99778.16;5072684;28;20177;-63
2023/06/30 01:02:16;;;;;;;10.77;7.47;;;;;;;24.70;60.68;99779.44;4757085;28;20222;-63
2023/06/30 01:05:01;;;;;;;12.57;7.63;;;;;;;24.70;60.84;99767.88;5071571;28;20719;-63
2023/06/30 01:07:49;;;;;;;10.70;7.20;;;;;;;24.70;60.81;99773.66;5092006;28;20511;-63
2023/06/30 01:10:15;;;;;;;10.00;7.30;;;;;;;24.70;60.69;99765.00;5071717;28;20436;-63
2023/06/30 01:12:41;;;;;;;12.40;7.90;;;;;;;24.70;60.78;99770.78;5073783;28;20396;-63
2023/06/30 01:15:07;;;;;;;9.50;6.93;;;;;;;24.70;60.50;99765.00;5091615;28;20555;-62
2023/06/30 01:17:33;;;;;;;11.40;7.50;;;;;;;24.71;60.78;99768.69;5090480;28;20759;-63
2023/06/30 01:19:59;;;;;;;10.07;6.63;;;;;;;24.69;60.82;99766.22;5071478;28;20272;-63
2023/06/30 01:22:28;;;;;;;10.30;6.80;;;;;;;24.69;60.80;99763.34;5073664;28;20791;-63
2023/06/30 01:24:58;;;;;;;13.30;6.90;;;;;;;24.68;60.53;99761.72;5044697;28;20441;-62
2023/06/30 01:27:23;;;;;;;8.40;6.40;;;;;;;24.68;60.74;99750.16;5055724;28;20527;-62
2023/06/30 01:29:50;;;;;;;10.60;6.40;;;;;;;24.68;60.73;99755.94;5072966;28;20470;-63
2023/06/30 01:32:16;;;;;;;9.17;6.80;;;;;;;24.69;60.67;99756.75;5072482;28;20253;-63
2023/06/30 01:34:45;;;;;;;10.80;6.77;;;;;;;24.69;60.76;99756.75;5075248;28;21128;-63
2023/06/30 01:37:11;;;;;;;10.10;7.17;;;;;;;24.68;60.65;99758.81;5090386;28;20451;-63
2023/06/30 01:39:36;;;;;;;8.97;6.40;;;;;;;24.68;60.79;99752.25;5080586;28;20445;-63
2023/06/30 01:42:02;;;;;;;9.37;6.57;;;;;;;24.68;60.89;99760.91;5075263;28;20178;-63
2023/06/30 01:44:27;;;;;;;13.83;7.70;;;;;;;24.68;60.68;99763.78;5084275;28;20190;-62
2023/06/30 01:46:53;;;;;;;8.80;6.20;;;;;;;24.68;60.61;99761.72;5081783;28;20219;-63
2023/06/30 01:49:18;;;;;;;10.03;7.00;;;;;;;24.67;60.52;99762.97;5090836;28;20582;-63
2023/06/30 01:51:44;;;;;;;9.83;6.60;;;;;;;24.67;60.79;99762.97;5055286;28;20182;-62
2023/06/30 01:54:09;;;;;;;10.70;7.40;;;;;;;24.68;60.89;99763.78;5072556;28;20182;-63
2023/06/30 01:56:35;;;;;;;10.10;7.20;;;;;;;24.67;60.69;99754.31;5069602;28;20232;-62
2023/06/30 01:59:00;;;;;;;9.60;6.93;;;;;;;24.66;60.51;99749.78;5072124;28;20179;-63
2023/06/30 02:01:26;;;;;;;12.90;7.60;;;;;;;24.66;60.53;99737.41;5088536;28;20226;-63
2023/06/30 02:03:52;;;;;;;12.73;7.17;;;;;;;24.67;60.76;99741.94;5088291;28;20178;-63
2023/06/30 02:06:17;;;;;;;10.80;6.93;;;;;;;24.67;60.66;99750.59;5090203;28;20194;-63
2023/06/30 02:08:42;;;;;;;9.07;6.10;;;;;;;24.66;60.66;99743.19;5079109;28;20623;-63
2023/06/30 02:11:08;;;;;;;9.20;7.07;;;;;;;24.66;60.34;99743.19;5069717;28;20159;-62
2023/06/30 02:13:33;;;;;;;9.50;6.73;;;;;;;24.65;60.36;99736.63;5084499;28;20773;-63
2023/06/30 02:15:59;;;;;;;9.20;6.80;;;;;;;24.66;60.68;99743.19;5069900;28;20175;-63
2023/06/30 02:18:25;;;;;;;10.27;7.00;;;;;;;24.67;60.20;99753.47;5087273;28;20197;-63
2023/06/30 02:20:50;;;;;;;12.27;6.87;;;;;;;24.66;60.26;99748.97;5078504;28;20187;-63
2023/06/30 02:23:16;;;;;;;9.77;7.17;;;;;;;24.66;60.58;99754.72;5069875;28;20179;-63
2023/06/30 02:25:41;;;;;;;11.00;7.67;;;;;;;24.64;60.61;99763.81;5072047;28;20440;-63
2023/06/30 02:28:06;;;;;;;10.00;6.50;;;;;;;24.65;60.59;99756.00;5089377;28;20154;-63
2023/06/30 02:30:32;;;;;;;10.20;6.93;;;;;;;24.64;60.49;99763.81;5089219;28;20912;-63
2023/06/30 02:32:58;;;;;;;9.07;6.40;;;;;;;24.65;60.96;99761.75;5086736;28;20186;-63
2023/06/30 02:35:24;;;;;;;9.30;6.63;;;;;;;24.64;60.57;99768.78;5090228;28;20202;-63
2023/06/30 02:37:50;;;;;;;8.50;6.67;;;;;;;24.64;60.66;99757.25;5087159;28;20529;-62
2023/06/30 02:40:15;;;;;;;9.40;7.03;;;;;;;24.64;60.63;99766.72;5070160;28;20406;-63
2023/06/30 02:42:41;;;;;;;16.00;7.23;;;;;;;24.64;60.93;99774.56;5059730;28;20266;-62
2023/06/30 02:45:07;;;;;;;8.70;6.90;;;;;;;24.64;60.84;99769.59;5075045;28;20190;-63
2023/06/30 02:47:32;;;;;;;10.23;6.70;;;;;;;24.65;60.65;99779.09;5050861;28;20171;-63
2023/06/30 02:49:58;;;;;;;8.70;6.10;;;;;;;24.63;61.02;99773.75;5053550;28;20191;-63
2023/06/30 02:52:23;;;;;;;9.27;6.60;;;;;;;24.62;60.95;99772.13;5050768;28;20212;-63
2023/06/30 02:54:49;;;;;;;10.13;7.40;;;;;;;24.62;60.89;99768.41;5068629;28;20538;-63
2023/06/30 02:57:14;;;;;;;11.80;7.80;;;;;;;24.62;60.58;99777.88;5053089;28;20179;-63
2023/06/30 02:59:40;;;;;;;10.70;7.37;;;;;;;24.63;60.97;99778.72;5068889;28;20168;-63
2023/06/30 03:02:06;;;;;;;10.13;6.83;;;;;;;24.62;60.98;99783.66;5071848;28;20226;-63
2023/06/30 03:04:31;;;;;;;9.57;6.53;;;;;;;24.63;60.80;99781.59;5076906;28;20294;-63
2023/06/30 03:06:57;;;;;;;8.23;6.57;;;;;;;24.62;60.83;99777.88;5068517;28;20905;-63
2023/06/30 03:09:22;;;;;;;10.63;7.40;;;;;;;24.63;60.94;99772.94;5068545;28;20175;-63
2023/06/30 03:11:48;;;;;;;9.57;6.83;;;;;;;24.62;60.74;99772.13;5070719;28;20193;-63
2023/06/30 03:14:13;;;;;;;11.33;7.57;;;;;;;24.63;60.69;99781.59;5068575;28;20191;-62
2023/06/30 03:16:38;;;;;;;9.87;7.00;;;;;;;24.62;60.54;99766.34;5068354;28;20795;-63
2023/06/30 03:19:04;;;;;;;12.17;7.60;;;;;;;24.62;60.79;99769.22;5071035;28;20316;-63
2023/06/30 03:21:29;;;;;;;10.53;6.73;;;;;;;24.62;60.72;99759.75;5069252;28;20171;-63
2023/06/30 03:23:55;;;;;;;10.10;7.37;;;;;;;24.61;60.46;99758.94;5070888;28;20224;-63
2023/06/30 03:26:20;;;;;;;9.20;7.50;;;;;;;24.61;60.46;99752.34;5079019;28;20178;-63
2023/06/30 03:28:45;;;;;;;9.63;6.77;;;;;;;24.60;60.82;99751.53;5088349;28;20195;-62
2023/06/30 03:31:11;;;;;;;12.50;8.40;;;;;;;24.60;60.50;99754.44;5070056;28;20189;-63
2023/06/30 03:33:36;;;;;;;10.87;7.27;;;;;;;24.61;60.81;99755.22;5082921;28;20714;-63
2023/06/30 03:36:02;;;;;;;10.93;7.73;;;;;;;24.61;60.58;99755.22;5070487;28;20617;-62
2023/06/30 03:38:27;;;;;;;8.83;6.90;;;;;;;24.61;60.41;99749.44;5086027;28;20935;-63
2023/06/30 03:40:53;;;;;;;10.17;7.40;;;;;;;24.60;60.89;99753.59;5073276;28;20181;-63
2023/06/30 03:43:21;;;;;;;10.03;7.90;;;;;;;24.61;60.59;99758.09;5087945;28;20343;-62
2023/06/30 03:45:46;;;;;;;11.10;7.37;;;;;;;24.60;60.83;99754.44;5085644;28;20186;-63
2023/06/30 03:48:12;;;;;;;12.40;7.73;;;;;;;24.60;60.82;99763.09;5088362;28;20522;-63
2023/06/30 03:50:43;;;;;;;10.03;7.90;;;;;;;24.60;60.65;99760.19;5085317;28;20186;-63
2023/06/30 03:53:09;;;;;;;9.83;7.40;;;;;;;24.60;60.37;99759.38;5077297;28;20188;-62
2023/06/30 03:55:34;;;;;;;11.27;7.60;;;;;;;24.59;60.71;99749.88;5072175;28;20436;-63
2023/06/30 03:58:00;;;;;;;11.17;7.90;;;;;;;24.58;60.85;99754.03;5091626;28;20185;-63
2023/06/30 04:00:25;;;;;;;10.13;7.37;;;;;;;24.59;60.84;99767.19;5058178;28;20360;-63
2023/06/30 04:02:50;;;;;;;11.57;8.33;;;;;;;24.59;60.79;99769.28;5092832;28;20288;-63
2023/06/30 04:05:16;;;;;;;12.10;8.57;;;;;;;24.58;60.62;99762.69;5088934;28;21059;-63
2023/06/30 04:07:41;;;;;;;13.40;8.37;;;;;;;24.58;60.66;99759.78;5092223;28;20201;-63
2023/06/30 04:10:07;;;;;;;11.20;8.23;;;;;;;24.58;60.71;99762.69;5091639;28;20232;-63
2023/06/30 04:12:32;;;;;;;10.60;7.20;;;;;;;24.59;60.59;99772.16;5074553;28;20194;-62
2023/06/30 04:14:58;;;;;;;10.63;7.70;;;;;;;24.58;60.58;99762.69;5071716;28;20570;-63
2023/06/30 04:17:23;;;;;;;12.17;8.40;;;;;;;24.58;60.80;99765.56;5074557;28;20191;-62
2023/06/30 04:19:49;;;;;;;12.40;8.30;;;;;;;24.57;60.72;99757.31;5084123;28;20159;-63
2023/06/30 04:22:14;;;;;;;12.47;8.97;;;;;;;24.57;60.65;99752.38;5090988;28;20743;-63
2023/06/30 04:24:40;;;;;;;11.50;7.83;;;;;;;24.57;60.80;99758.13;5087288;28;20516;-63
2023/06/30 04:27:05;;;;;;;11.30;8.10;;;;;;;24.57;60.82;99752.38;5090936;28;20201;-63
2023/06/30 04:29:30;;;;;;;10.80;8.23;;;;;;;24.58;60.65;99747.41;5082172;28;20183;-63
2023/06/30 04:31:56;;;;;;;10.73;8.20;;;;;;;24.58;60.36;99747.41;5072016;28;20164;-63
2023/06/30 04:34:21;;;;;;;12.33;8.73;;;;;;;24.57;60.73;99752.38;5072434;28;20191;-63
2023/06/30 04:36:49;;;;;;;12.50;8.90;;;;;;;24.58;60.58;99753.19;5090777;28;20186;-63
2023/06/30 04:39:14;;;;;;;14.37;8.30;;;;;;;24.57;60.61;99752.38;5091241;28;20163;-63
2023/06/30 04:41:40;;;;;;;12.03;8.63;;;;;;;24.57;60.58;99746.59;5079599;28;20625;-63
2023/06/30 04:44:05;;;;;;;13.07;8.80;;;;;;;24.56;60.81;99750.75;5087980;28;20665;-63
2023/06/30 04:46:31;;;;;;;14.33;8.80;;;;;;;24.56;60.60;99758.56;5090614;28;20475;-63
2023/06/30 04:48:56;;;;;;;15.50;9.63;;;;;;;24.56;60.84;99755.69;5087059;28;21075;-63
2023/06/30 04:51:22;;;;;;;12.93;9.33;;;;;;;24.56;60.29;99759.41;5090462;28;20185;-63
2023/06/30 04:53:47;;;;;;;13.10;10.00;;;;;;;24.54;60.29;99759.00;5091184;28;20272;-63
2023/06/30 04:56:13;;;;;;;14.60;9.67;;;;;;;24.54;60.34;99761.09;5091778;28;20193;-63
2023/06/30 04:58:38;;;;;;;13.27;9.63;;;;;;;24.54;60.63;99763.97;5083453;28;20202;-63
2023/06/30 05:01:04;;;;;;;17.33;11.57;;;;;;;24.53;60.17;99768.91;5074309;28;20234;-63
2023/06/30 05:03:30;;;;;;;15.10;10.57;;;;;;;24.54;60.14;99766.84;5070451;28;20785;-63
2023/06/30 05:05:57;;;;;;;14.37;9.67;;;;;;;24.54;61.13;99775.50;5053403;28;20457;-63
2023/06/30 05:08:23;;;;;;;13.80;9.53;;;;;;;24.53;60.68;99777.56;5085990;28;20278;-62
2023/06/30 05:10:48;;;;;;;16.93;9.93;;;;;;;24.53;60.64;99771.78;5091452;28;20408;-63
2023/06/30 05:13:14;;;;;;;17.80;10.70;;;;;;;24.53;60.86;99773.88;5084009;28;20195;-63
2023/06/30 05:15:39;;;;;;;16.67;10.83;;;;;;;24.53;60.58;99773.88;5070181;28;20210;-63
2023/06/30 05:18:05;;;;;;;19.03;11.27;;;;;;;24.54;60.61;99784.19;5070114;28;20608;-63
2023/06/30 05:20:32;;;;;;;17.70;12.20;;;;;;;24.52;60.52;99780.88;5072784;28;20184;-63
2023/06/30 05:22:57;;;;;;;17.30;11.17;;;;;;;24.53;60.70;99780.47;5052112;28;20425;-63
2023/06/30 05:25:23;;;;;;;18.50;12.37;;;;;;;24.53;60.37;99774.69;5075459;28;21752;-63
2023/06/30 05:27:48;;;;;;;17.53;12.50;;;;;;;24.52;60.51;99773.06;5072279;28;20167;-63
2023/06/30 05:30:13;;;;;;;21.40;12.63;;;;;;;24.52;60.66;99770.16;5088894;28;20178;-63
2023/06/30 05:32:39;;;;;;;17.70;10.90;;;;;;;24.52;60.54;99773.06;5071730;28;20273;-63
2023/06/30 05:35:05;;;;;;;17.40;12.00;;;;;;;24.52;60.81;99772.22;5052240;28;20682;-62
2023/06/30 05:37:30;;;;;;;17.10;11.63;;;;;;;24.51;60.83;99777.19;5070661;28;20190;-63
2023/06/30 05:39:55;;;;;;;18.40;11.87;;;;;;;24.52;60.91;99781.72;5071979;28;20696;-63
2023/06/30 05:42:21;;;;;;;17.80;11.60;;;;;;;24.52;60.78;99783.78;5084971;28;20193;-63
2023/06/30 05:44:46;;;;;;;15.70;11.33;;;;;;;24.51;60.72;99800.28;5089881;28;20175;-63
2023/06/30 05:47:12;;;;;;;18.03;12.47;;;;;;;24.51;60.71;99800.28;5089269;28;20179;-62
2023/06/30 05:49:38;;;;;;;17.27;13.20;;;;;;;24.52;60.94;99803.97;5078096;28;20175;-63
2023/06/30 05:52:04;;;;;;;16.63;11.50;;;;;;;24.51;60.60;99813.91;5084496;28;20175;-63
2023/06/30 05:54:29;;;;;;;22.70;13.67;;;;;;;24.51;60.61;99811.00;5079374;28;20487;-63
2023/06/30 05:56:54;;;;;;;20.83;13.27;;;;;;;24.50;60.36;99827.53;5086987;28;20179;-63
2023/06/30 05:59:20;;;;;;;21.20;13.97;;;;;;;24.49;60.41;99831.63;5060671;28;20244;-63
2023/06/30 06:01:45;;;;;;;21.50;13.97;;;;;;;24.49;60.56;99837.41;5078055;28;20230;-63
2023/06/30 06:04:14;;;;;;;20.83;14.07;;;;;;;24.48;60.54;99847.31;5083997;28;20183;-63
2023/06/30 06:06:39;;;;;;;20.70;14.37;;;;;;;24.47;60.57;99857.25;5084148;28;20202;-63
2023/06/30 06:09:05;;;;;;;20.73;14.57;;;;;;;24.47;60.60;99865.91;5084043;28;20830;-63
2023/06/30 06:11:30;;;;;;;24.40;16.13;;;;;;;24.47;60.78;99862.19;5080396;28;20236;-63
2023/06/30 06:13:56;;;;;;;23.03;15.20;;;;;;;24.47;60.54;99867.94;5077279;28;20569;-62
2023/06/30 06:16:21;;;;;;;27.57;16.47;;;;;;;24.46;60.69;99867.16;5065375;28;20258;-63
2023/06/30 06:18:47;;;;;;;23.60;15.67;;;;;;;24.47;60.63;99867.94;5088181;28;20182;-63
2023/06/30 06:21:12;;;;;;;23.67;15.50;;;;;;;24.46;60.87;99872.94;5082111;28;20187;-63
2023/06/30 06:23:38;;;;;;;24.03;15.90;;;;;;;24.47;60.75;99871.66;5069257;28;20171;-63
2023/06/30 06:26:03;;;;;;;25.40;15.60;;;;;;;24.47;60.81;99873.72;5056847;28;20198;-62
2023/06/30 06:28:29;;;;;;;22.93;16.20;;;;;;;24.47;60.84;99889.00;5081779;28;20178;-63
2023/06/30 06:30:54;;;;;;;24.40;16.07;;;;;;;24.48;60.69;99886.94;5078648;28;20187;-63
2023/06/30 06:33:20;;;;;;;25.40;17.10;;;;;;;24.45;60.67;99888.63;5078485;28;20171;-62
2023/06/30 06:35:46;;;;;;;24.90;15.90;;;;;;;24.47;61.03;99896.81;5077877;28;20190;-63
2023/06/30 06:38:15;;;;;;;29.20;17.30;;;;;;;24.46;60.78;99901.78;5079780;28;20471;-62
2023/06/30 06:40:40;;;;;;;22.30;15.33;;;;;;;24.46;61.17;99898.06;5089502;28;20240;-62
2023/06/30 06:43:06;;;;;;;24.70;16.37;;;;;;;24.44;60.78;99898.50;5088431;28;20461;-63
2023/06/30 06:45:31;;;;;;;23.37;15.47;;;;;;;24.58;62.24;99898.34;5083469;28;20182;-63
2023/06/30 06:48:18;;;;;;;28.13;19.33;;;;;;;24.84;64.12;99900.47;5069736;28;20195;-63
2023/06/30 06:50:44;;;;;;;39.70;23.77;;;;;;;24.95;65.22;99904.06;5075819;28;20183;-63
2023/06/30 06:53:10;;;;;;;43.47;23.10;;;;;;;24.88;66.47;99909.13;5069781;28;20428;-63
2023/06/30 06:55:35;;;;;;;38.47;22.97;;;;;;;24.98;67.45;99906.06;5073148;28;20210;-63
2023/06/30 06:58:01;;;;;;;36.17;23.87;;;;;;;25.09;67.41;99903.81;5071261;28;20532;-62
2023/06/30 07:00:26;;;;;;;38.40;25.60;;;;;;;25.05;67.15;99908.03;5081166;28;20233;-63
2023/06/30 07:02:52;;;;;;;31.47;19.67;;;;;;;24.91;67.04;99911.94;5077247;28;20237;-63
2023/06/30 07:05:17;;;;;;;31.00;20.70;;;;;;;24.87;66.28;99922.72;5080243;28;20205;-63
2023/06/30 07:07:43;;;;;;;33.03;19.93;;;;;;;24.86;66.44;99920.25;5070579;28;20254;-63
2023/06/30 07:10:09;;;;;;;38.93;20.80;;;;;;;24.81;66.19;99920.75;5074263;28;20236;-63
2023/06/30 07:12:34;;;;;;;29.13;20.97;;;;;;;24.83;66.15;99919.06;5083168;28;20197;-63
2023/06/30 07:15:00;;;;;;;31.50;20.17;;;;;;;24.79;65.63;99926.94;5080448;28;20218;-63
2023/06/30 07:17:25;;;;;;;28.50;18.10;;;;;;;24.78;65.60;99919.53;5069056;28;20596;-63
2023/06/30 07:19:50;;;;;;;30.70;19.17;;;;;;;24.76;64.83;99927.84;5069067;28;20214;-63
2023/06/30 07:22:16;;;;;;;30.10;18.83;;;;;;;24.71;64.77;99930.38;5078853;28;20193;-63
2023/06/30 07:24:41;;;;;;;30.60;19.37;;;;;;;24.65;65.52;99927.16;5078589;28;20178;-63
2023/06/30 07:27:07;;;;;;;33.20;20.40;;;;;;;24.63;65.01;99923.88;5076134;28;20194;-63
2023/06/30 07:29:32;;;;;;;29.53;18.97;;;;;;;24.61;65.25;99926.38;5074645;28;20838;-63
2023/06/30 07:31:57;;;;;;;30.53;19.63;;;;;;;24.61;65.54;99929.25;5071126;28;20637;-63
2023/06/30 07:34:23;;;;;;;34.70;20.50;;;;;;;24.59;65.78;99928.84;5073890;28;20213;-63
2023/06/30 07:36:50;;;;;;;27.80;17.73;;;;;;;24.58;66.76;99918.56;5077111;28;20198;-63
2023/06/30 07:39:16;;;;;;;38.10;20.30;;;;;;;24.60;66.33;99924.75;5071168;28;20577;-63
2023/06/30 07:41:41;;;;;;;27.60;17.30;;;;;;;24.61;66.32;99923.50;5068542;28;20433;-62
2023/06/30 07:44:09;;;;;;;27.00;18.43;;;;;;;24.63;66.30;99926.75;5089389;28;20182;-63
2023/06/30 07:46:34;;;;;;;26.40;18.57;;;;;;;24.63;66.60;99926.75;5089069;28;20171;-63
2023/06/30 07:49:00;;;;;;;31.33;18.40;;;;;;;24.64;66.75;99921.81;5066645;28;20508;-63
2023/06/30 07:51:25;;;;;;;34.93;19.10;;;;;;;24.63;66.32;99925.94;5089321;28;20182;-62
2023/06/30 07:53:50;;;;;;;30.07;17.90;;;;;;;24.63;66.59;99923.88;5085266;28;20225;-63
2023/06/30 07:56:16;;;;;;;32.30;18.57;;;;;;;24.63;66.21;99926.75;5078580;28;20186;-63
2023/06/30 07:58:41;;;;;;;31.70;19.60;;;;;;;24.63;66.34;99923.88;5088546;28;20293;-63
2023/06/30 08:01:07;;;;;;;37.40;19.57;;;;;;;24.63;66.33;99928.84;5073454;28;20238;-63
2023/06/30 08:03:33;;;;;;;26.57;17.87;;;;;;;24.62;66.05;99925.13;5059800;28;20239;-63
2023/06/30 08:05:58;;;;;;;26.63;17.87;;;;;;;24.63;66.04;99928.84;5087667;28;20210;-63
2023/06/30 08:08:25;;;;;;;27.20;18.00;;;;;;;24.62;65.97;99928.00;5075506;28;20607;-63
2023/06/30 08:10:50;;;;;;;33.63;19.77;;;;;;;24.61;65.94;99926.38;5069456;28;20437;-63
2023/06/30 08:13:16;;;;;;;28.33;17.00;;;;;;;24.61;66.24;99926.38;5066999;28;20627;-63
2023/06/30 08:15:42;;;;;;;34.23;18.37;;;;;;;24.61;65.73;99928.44;5070163;28;20206;-63
2023/06/30 08:18:07;;;;;;;32.43;18.90;;;;;;;24.61;65.75;99931.31;5084510;28;20182;-63
2023/06/30 08:20:33;;;;;;;27.43;18.10;;;;;;;24.60;65.73;99924.75;5086100;28;21241;-63
2023/06/30 08:22:59;;;;;;;33.20;18.33;;;;;;;24.60;66.13;99930.53;5070786;28;20218;-63
2023/06/30 08:25:24;;;;;;;27.03;18.27;;;;;;;24.59;65.69;99925.97;5077078;28;20784;-63
2023/06/30 08:27:50;;;;;;;26.87;17.37;;;;;;;24.58;65.78;99927.22;5080579;28;20220;-63
2023/06/30 08:30:16;;;;;;;31.90;19.60;;;;;;;24.59;65.56;99936.72;5086619;28;20175;-63
2023/06/30 08:32:42;;;;;;;25.17;18.00;;;;;;;24.58;65.74;99927.22;5066003;28;20423;-63
2023/06/30 08:35:08;;;;;;;29.63;20.53;;;;;;;24.58;65.72;99930.13;5067295;28;20538;-63
2023/06/30 08:37:33;;;;;;;26.97;18.03;;;;;;;24.58;65.65;99923.50;5068223;28;20528;-63
2023/06/30 08:40:00;;;;;;;30.10;19.23;;;;;;;24.58;65.67;99930.13;5087280;28;20178;-63
2023/06/30 08:42:27;;;;;;;26.40;18.07;;;;;;;24.58;65.54;99932.16;5092550;28;20178;-63
2023/06/30 08:44:53;;;;;;;27.10;18.03;;;;;;;24.58;65.74;99930.13;5088359;28;20436;-63
2023/06/30 08:47:19;;;;;;;28.47;19.47;;;;;;;24.57;65.73;99925.56;5072030;28;20421;-63
2023/06/30 08:49:47;;;;;;;28.83;19.50;;;;;;;24.57;65.56;99918.97;5070416;28;20293;-63
2023/06/30 08:52:14;;;;;;;27.40;18.30;;;;;;;24.57;65.50;99927.63;5076669;28;20447;-63
2023/06/30 08:54:40;;;;;;;30.80;18.07;;;;;;;24.57;65.56;99919.78;5071910;28;20496;-63
2023/06/30 08:57:05;;;;;;;24.97;18.67;;;;;;;24.58;65.46;99920.63;5063211;28;20430;-63
2023/06/30 08:59:31;;;;;;;27.23;19.10;;;;;;;24.57;65.57;99919.78;5088830;28;20192;-63
2023/06/30 09:01:57;;;;;;;27.63;17.23;;;;;;;24.57;65.19;99919.78;5089369;28;20234;-63
2023/06/30 09:04:22;;;;;;;27.13;18.90;;;;;;;24.57;64.96;99916.91;5072775;28;20162;-63
2023/06/30 09:06:48;;;;;;;28.73;18.20;;;;;;;24.57;64.81;99907.41;5072483;28;20443;-63
2023/06/30 09:09:20;;;;;;;25.80;17.60;;;;;;;24.58;64.99;99909.91;5086785;28;20200;-63
2023/06/30 09:11:45;;;;;;;26.30;17.40;;;;;;;24.57;65.01;99908.25;5037965;28;20194;-63
2023/06/30 09:14:11;;;;;;;25.53;17.10;;;;;;;24.57;65.10;99908.25;5072062;28;20457;-63
2023/06/30 09:16:36;;;;;;;27.23;17.53;;;;;;;24.57;64.81;99905.34;5071062;28;20175;-63
2023/06/30 09:19:02;;;;;;;25.73;17.63;;;;;;;24.57;64.62;99899.59;5074041;28;20175;-63
2023/06/30 09:21:28;;;;;;;27.00;19.20;;;;;;;24.57;64.97;99908.25;5052399;28;20195;-63
2023/06/30 09:23:53;;;;;;;23.90;17.53;;;;;;;24.57;64.84;99902.47;5070320;28;20229;-63
2023/06/30 09:26:19;;;;;;;27.70;17.47;;;;;;;24.57;64.72;99901.63;5082351;28;20175;-63
2023/06/30 09:28:44;;;;;;;25.87;17.90;;;;;;;24.57;64.76;99898.75;5078265;28;20187;-63
2023/06/30 09:31:10;;;;;;;23.73;16.73;;;;;;;24.56;64.87;99905.78;5070225;28;20267;-63
2023/06/30 09:33:36;;;;;;;26.90;16.97;;;;;;;24.57;64.56;99910.28;5059166;28;20179;-63
2023/06/30 09:36:03;;;;;;;28.20;16.80;;;;;;;24.55;64.75;99910.75;5052940;28;20242;-63
2023/06/30 09:38:29;;;;;;;26.67;17.87;;;;;;;24.54;64.79;99914.88;5072677;28;20182;-63
2023/06/30 09:40:55;;;;;;;28.33;17.70;;;;;;;24.55;64.49;99918.59;5072079;28;20892;-63
2023/06/30 09:43:25;;;;;;;24.27;16.47;;;;;;;24.55;65.07;99919.41;5084522;28;20420;-63
2023/06/30 09:45:54;;;;;;;28.53;19.07;;;;;;;24.55;64.77;99916.53;5079051;28;20918;-63
2023/06/30 09:48:20;;;;;;;27.30;18.80;;;;;;;24.55;65.33;99919.41;5070229;28;20417;-63
2023/06/30 09:50:45;;;;;;;24.30;17.47;;;;;;;24.54;64.77;99911.97;5070426;28;20433;-63
2023/06/30 09:53:10;;;;;;;26.20;17.20;;;;;;;24.55;64.67;99918.59;5064315;28;20709;-63
2023/06/30 09:55:49;;;;;;;24.80;17.90;;;;;;;24.54;64.73;99920.63;5088049;28;20202;-63
2023/06/30 09:58:18;;;;;;;28.17;17.60;;;;;;;24.54;64.78;99914.06;5071079;28;20728;-63
2023/06/30 10:00:45;;;;;;;25.67;17.20;;;;;;;24.52;64.94;99911.59;5082705;28;20436;-63
2023/06/30 10:03:11;;;;;;;27.07;18.50;;;;;;;24.53;64.84;99913.22;5090959;28;20540;-63
2023/06/30 10:05:37;;;;;;;23.40;16.60;;;;;;;24.53;64.95;99918.22;5091058;28;20746;-63
2023/06/30 10:08:02;;;;;;;26.37;17.77;;;;;;;24.53;64.77;99912.44;5087030;28;20213;-62
2023/06/30 10:10:28;;;;;;;28.30;19.23;;;;;;;24.53;65.13;99912.44;5085027;28;20420;-63
2023/06/30 10:12:58;;;;;;;22.50;16.50;;;;;;;24.53;64.55;99907.47;5072370;28;20190;-63
2023/06/30 10:15:24;;;;;;;25.57;17.20;;;;;;;24.54;64.90;99908.28;5052485;28;20183;-63
2023/06/30 10:17:49;;;;;;;25.23;18.00;;;;;;;24.53;64.87;99907.47;5053830;28;20899;-62
2023/06/30 10:20:15;;;;;;;23.73;16.90;;;;;;;24.53;64.99;99907.47;5069855;28;20170;-63
2023/06/30 10:22:41;;;;;;;25.60;17.30;;;;;;;24.53;64.64;99910.34;5057666;28;20187;-63
2023/06/30 10:25:07;;;;;;;26.60;18.17;;;;;;;24.54;64.52;99911.97;5068544;28;20163;-63
2023/06/30 10:27:32;;;;;;;21.43;15.87;;;;;;;24.54;64.97;99897.53;5089312;28;20432;-63
2023/06/30 10:29:58;;;;;;;28.00;18.37;;;;;;;24.53;64.71;99907.47;5088142;28;20179;-63
2023/06/30 10:32:23;;;;;;;25.33;16.57;;;;;;;24.54;64.83;99902.53;5081966;28;20182;-63
2023/06/30 10:34:49;;;;;;;22.93;16.47;;;;;;;24.55;64.52;99899.22;5055068;28;20190;-63
2023/06/30 10:37:14;;;;;;;26.97;17.63;;;;;;;24.56;64.39;99903.72;5071907;28;20610;-63
2023/06/30 10:39:40;;;;;;;28.17;17.50;;;;;;;24.55;64.40;99904.97;5090009;28;20208;-63
2023/06/30 10:42:06;;;;;;;25.03;17.40;;;;;;;24.55;64.37;99902.09;5071908;28;20178;-63
2023/06/30 10:44:38;;;;;;;24.87;16.67;;;;;;;24.55;64.23;99904.16;5085270;28;20498;-63
2023/06/30 10:47:03;;;;;;;23.23;16.00;;;;;;;24.55;64.56;99892.59;5071484;28;20415;-63
2023/06/30 10:49:30;;;;;;;27.93;16.50;;;;;;;24.55;64.61;99892.59;5080068;28;20797;-62
2023/06/30 10:51:56;;;;;;;22.77;16.07;;;;;;;24.55;64.40;99892.59;5068849;28;20258;-63
2023/06/30 10:54:26;;;;;;;23.50;17.20;;;;;;;24.56;64.86;99888.47;5050790;28;20464;-63
2023/06/30 10:57:04;;;;;;;26.20;16.90;;;;;;;24.55;64.54;99884.78;5085257;28;20481;-63
2023/06/30 10:59:44;;;;;;;22.90;16.43;;;;;;;24.56;64.40;99891.34;5089185;28;20413;-62
2023/06/30 11:02:18;;;;;;;24.23;17.47;;;;;;;24.54;64.64;99886.00;5085240;28;20490;-63
2023/06/30 11:04:45;;;;;;;25.30;17.20;;;;;;;24.55;64.80;99889.72;5089778;28;20403;-63
2023/06/30 11:07:11;;;;;;;26.03;17.17;;;;;;;24.54;64.25;99894.66;5083423;28;20807;-63
2023/06/30 11:09:48;;;;;;;26.50;17.27;;;;;;;24.54;64.45;99894.66;5070919;28;20449;-63
2023/06/30 11:12:23;;;;;;;24.67;17.37;;;;;;;24.54;64.88;99888.88;5068991;28;20174;-63
2023/06/30 11:15:03;;;;;;;25.43;16.97;;;;;;;24.55;64.88;99886.81;5070959;28;20458;-63
2023/06/30 11:17:50;;;;;;;22.77;17.00;;;;;;;24.54;64.65;99877.34;5068436;28;21033;-63